Time;durP1;ratioP1;P1;durP2;ratioP2;P2;SDS_P1;SDS_P2;PMS_P1;PMS_P2;Temp;Humidity;BMP_temperature;BMP_pressure;BME280_temperature;BME280_humidity;BME280_pressure;Samples;Min_cycle;Max_cycle;Signal;HPM_P1;HPM_P2
2021/04/28 00:01:22;;;;;;;11.65;4.35;;;;;;;8.18;100.00;92632.69;5133084;27;19919;-83
2021/04/28 00:03:49;;;;;;;15.90;5.50;;;;;;;7.85;100.00;92586.69;5132225;27;20047;-83
2021/04/28 00:06:15;;;;;;;10.30;5.38;;;;;;;7.95;100.00;92601.56;5132389;27;20063;-83
2021/04/28 00:08:41;;;;;;;;;;;;;;;8.08;100.00;92635.69;5133151;27;20047;-83
2021/04/28 00:11:09;;;;;;;8.77;4.63;;;;;;;7.85;100.00;92619.91;5132146;27;19930;-83
2021/04/28 00:13:35;;;;;;;10.13;4.70;;;;;;;7.91;100.00;92648.22;5132670;27;20154;-81
2021/04/28 00:16:01;;;;;;;;;;;;;;;7.88;100.00;92644.28;5133194;27;20043;-81
2021/04/28 00:18:28;;;;;;;13.57;4.32;;;;;;;7.83;100.00;92639.78;5132379;27;19927;-81
2021/04/28 00:20:54;;;;;;;7.63;4.45;;;;;;;7.87;100.00;92645.28;5132586;27;20103;-81
2021/04/28 00:23:20;;;;;;;;;;;;;;;7.89;100.00;92645.84;5132903;27;20040;-81
2021/04/28 00:25:47;;;;;;;10.73;5.38;;;;;;;7.93;100.00;92653.91;5131982;27;19923;-81
2021/04/28 00:28:14;;;;;;;8.18;5.32;;;;;;;7.96;100.00;92641.47;5132577;27;20047;-81
2021/04/28 00:30:41;;;;;;;10.68;5.85;;;;;;;7.90;100.00;92624.41;5132272;27;20051;-81
2021/04/28 00:33:07;;;;;;;10.40;4.03;;;;;;;7.93;100.00;92620.66;5131268;27;20436;-81
2021/04/28 00:35:34;;;;;;;7.60;4.15;;;;;;;8.14;100.00;92643.31;5132256;27;20055;-81
2021/04/28 00:38:00;;;;;;;10.13;5.30;;;;;;;8.09;100.00;92630.38;5132291;27;20047;-81
2021/04/28 00:40:29;;;;;;;8.63;4.95;;;;;;;8.10;100.00;92621.69;5131865;27;20051;-81
2021/04/28 00:42:57;;;;;;;11.43;6.07;;;;;;;8.30;100.00;92651.47;5131808;27;20099;-81
2021/04/28 00:45:25;;;;;;;7.50;4.18;;;;;;;8.35;100.00;92659.31;5131553;27;20043;-82
2021/04/28 00:47:53;;;;;;;10.00;5.10;;;;;;;8.35;100.00;92650.84;5131705;27;20057;-81
2021/04/28 00:50:20;;;;;;;12.13;5.85;;;;;;;8.36;100.00;92644.72;5131701;27;20054;-81
2021/04/28 00:52:48;;;;;;;10.55;5.18;;;;;;;8.11;100.00;92604.59;5131630;27;20047;-81
2021/04/28 00:55:15;;;;;;;9.52;5.25;;;;;;;8.28;100.00;92626.09;5131749;27;20050;-82
2021/04/28 00:57:41;;;;;;;19.48;5.85;;;;;;;8.45;100.00;92640.91;5131458;27;20547;-82
2021/04/28 01:00:10;;;;;;;10.15;5.18;;;;;;;8.37;100.00;92618.94;5131465;27;20047;-81
2021/04/28 01:02:37;;;;;;;12.82;5.40;;;;;;;8.37;100.00;92621.50;5131746;27;20051;-82
2021/04/28 01:05:06;;;;;;;9.85;5.03;;;;;;;8.47;100.00;92635.59;5131225;27;20047;-82
2021/04/28 01:07:33;;;;;;;8.60;4.65;;;;;;;8.49;100.00;92636.94;5131252;27;20053;-81
2021/04/28 01:10:01;;;;;;;6.82;3.50;;;;;;;8.37;100.00;92618.13;5131559;27;20050;-81
2021/04/28 01:12:28;;;;;;;7.55;4.18;;;;;;;8.47;100.00;92631.25;5131416;27;20055;-82
2021/04/28 01:14:55;;;;;;;8.48;4.32;;;;;;;8.48;100.00;92630.25;5131383;27;20483;-82
2021/04/28 01:17:22;;;;;;;9.50;3.72;;;;;;;8.49;100.00;92631.84;5131303;27;20051;-82
2021/04/28 01:19:49;;;;;;;7.90;3.75;;;;;;;8.47;100.00;92625.34;5130839;27;20047;-82
2021/04/28 01:22:18;;;;;;;5.30;3.95;;;;;;;8.39;100.00;92616.16;5131479;27;20070;-82
2021/04/28 01:24:45;;;;;;;8.23;4.13;;;;;;;8.34;100.00;92600.66;5130888;27;20440;-83
2021/04/28 01:27:15;;;;;;;4.95;2.72;;;;;;;8.33;100.00;92599.09;5131314;27;20054;-82
2021/04/28 01:29:43;;;;;;;5.45;3.10;;;;;;;8.25;100.00;92584.78;5131106;27;20035;-84
2021/04/28 01:32:14;;;;;;;10.80;3.60;;;;;;;8.37;100.00;92602.78;5130909;27;20107;-85
2021/04/28 01:34:41;;;;;;;6.45;3.20;;;;;;;8.25;100.00;92588.13;5130689;27;20067;-83
2021/04/28 01:37:08;;;;;;;5.85;3.67;;;;;;;8.41;100.00;92603.94;5130500;27;20043;-83
2021/04/28 01:39:36;;;;;;;6.18;3.53;;;;;;;8.23;100.00;92577.31;5130926;27;20046;-82
2021/04/28 01:42:03;;;;;;;6.15;3.80;;;;;;;8.45;100.00;92610.19;5130773;27;20043;-83
2021/04/28 01:44:30;;;;;;;7.72;3.75;;;;;;;8.37;100.00;92610.47;5130417;27;20054;-83
2021/04/28 01:46:58;;;;;;;5.55;3.67;;;;;;;8.27;100.00;92610.94;5130710;27;20047;-83
2021/04/28 01:49:25;;;;;;;5.53;3.28;;;;;;;8.16;100.00;92602.97;5130788;27;20537;-83
2021/04/28 01:51:55;;;;;;;8.88;4.68;;;;;;;7.95;100.00;92572.63;5130694;27;20095;-83
2021/04/28 01:54:22;;;;;;;6.30;3.47;;;;;;;8.19;100.00;92612.00;5130634;27;20119;-83
2021/04/28 01:56:51;;;;;;;6.53;3.83;;;;;;;8.20;100.00;92615.34;5130487;27;20054;-82
2021/04/28 01:59:21;;;;;;;7.63;3.25;;;;;;;8.15;100.00;92609.06;5130371;27;20100;-83
2021/04/28 02:01:49;;;;;;;5.10;3.25;;;;;;;8.12;100.00;92611.28;5130436;27;20047;-83
2021/04/28 02:04:16;;;;;;;6.53;3.08;;;;;;;8.08;100.00;92612.66;5130213;27;20053;-83
2021/04/28 02:06:43;;;;;;;6.88;2.95;;;;;;;7.84;100.00;92587.69;5130141;27;20047;-82
2021/04/28 02:09:10;;;;;;;5.35;3.10;;;;;;;7.89;100.00;92597.28;5129883;27;20039;-84
2021/04/28 02:11:36;;;;;;;5.68;3.40;;;;;;;7.91;100.00;92610.63;5130088;27;20071;-83
2021/04/28 02:14:04;;;;;;;4.50;3.00;;;;;;;7.95;100.00;92618.66;5130220;27;20062;-84
2021/04/28 02:16:33;;;;;;;7.07;3.40;;;;;;;7.92;100.00;92614.75;5129983;27;20043;-84
2021/04/28 02:19:03;;;;;;;6.70;4.05;;;;;;;7.74;100.00;92607.81;5130342;27;20392;-84
2021/04/28 02:21:29;;;;;;;7.63;4.18;;;;;;;7.69;100.00;92594.84;5130544;28;20043;-84
2021/04/28 02:23:56;;;;;;;9.35;4.28;;;;;;;7.76;100.00;92618.59;5130060;28;20493;-84
2021/04/28 02:26:23;;;;;;;8.95;5.03;;;;;;;7.75;100.00;92622.16;5130266;28;20073;-84
2021/04/28 02:28:49;;;;;;;7.65;4.47;;;;;;;7.74;100.00;92618.03;5129991;28;20043;-84
2021/04/28 02:31:15;;;;;;;;;;;;;;;7.67;100.00;92614.72;5130670;28;20099;-83
2021/04/28 02:33:43;;;;;;;10.05;5.10;;;;;;;7.59;100.00;92619.09;5130033;27;20419;-80
2021/04/28 02:36:10;;;;;;;7.25;3.50;;;;;;;7.65;100.00;92614.16;5130194;27;20047;-81
2021/04/28 02:38:42;;;;;;;6.38;3.85;;;;;;;7.62;100.00;92608.47;5129954;28;20047;-80
2021/04/28 02:41:08;;;;;;;9.13;4.93;;;;;;;7.58;100.00;92620.09;5130173;28;20047;-80
2021/04/28 02:43:37;;;;;;;9.45;4.50;;;;;;;7.58;100.00;92622.63;5130198;28;20046;-83
2021/04/28 02:46:05;;;;;;;8.05;4.28;;;;;;;7.55;100.00;92620.47;5129665;28;20047;-82
2021/04/28 02:48:32;;;;;;;9.57;3.95;;;;;;;7.52;100.00;92617.56;5130107;28;20086;-85
2021/04/28 02:51:00;;;;;;;6.95;3.83;;;;;;;7.49;100.00;92619.53;5129845;28;20043;-85
2021/04/28 02:53:28;;;;;;;9.45;4.57;;;;;;;7.52;100.00;92627.78;5129919;28;20047;-83
2021/04/28 02:55:56;;;;;;;8.40;3.38;;;;;;;7.44;100.00;92610.91;5131305;27;20410;-83
2021/04/28 02:58:22;;;;;;;7.47;3.80;;;;;;;7.52;100.00;92627.78;5133777;27;20493;-83
2021/04/28 03:00:50;;;;;;;6.75;3.50;;;;;;;7.53;100.00;92632.69;5133897;27;20447;-83
2021/04/28 03:03:17;;;;;;;5.47;3.20;;;;;;;7.32;100.00;92598.00;5134069;27;20387;-83
2021/04/28 03:05:44;;;;;;;5.75;2.65;;;;;;;7.48;100.00;92627.41;5134036;27;20535;-82
2021/04/28 03:08:11;;;;;;;12.88;6.03;;;;;;;7.44;100.00;92639.03;5133832;27;20043;-82
2021/04/28 03:10:39;;;;;;;7.47;4.00;;;;;;;7.45;100.00;92636.25;5133998;27;20054;-82
2021/04/28 03:13:05;;;;;;;8.00;4.43;;;;;;;7.43;100.00;92632.34;5133848;27;20043;-82
2021/04/28 03:15:32;;;;;;;5.68;2.95;;;;;;;7.38;100.00;92627.84;5133947;27;20078;-81
2021/04/28 03:17:59;;;;;;;5.43;3.80;;;;;;;7.39;100.00;92626.88;5133597;27;20051;-81
2021/04/28 03:20:27;;;;;;;6.32;3.58;;;;;;;7.44;100.00;92637.25;5133647;27;20043;-81
2021/04/28 03:22:54;;;;;;;4.60;3.03;;;;;;;7.43;100.00;92643.38;5133775;27;20104;-82
2021/04/28 03:25:21;;;;;;;12.77;4.15;;;;;;;7.29;100.00;92634.19;5133628;27;20046;-81
2021/04/28 03:27:49;;;;;;;3.70;2.58;;;;;;;7.37;100.00;92651.06;5133132;27;20047;-81
2021/04/28 03:30:16;;;;;;;5.07;2.67;;;;;;;7.31;100.00;92650.09;5133362;27;20578;-80
2021/04/28 03:32:42;;;;;;;3.53;2.70;;;;;;;7.24;100.00;92657.78;5133841;27;20051;-81
2021/04/28 03:35:10;;;;;;;;;;;;;;;7.20;100.00;92657.41;5133754;27;20055;-80
2021/04/28 03:37:37;;;;;;;4.72;2.40;;;;;;;7.09;100.00;92663.16;5133270;27;19919;-80
2021/04/28 03:40:04;;;;;;;4.38;2.38;;;;;;;7.12;100.00;92670.38;5133577;27;20078;-80
2021/04/28 03:42:31;;;;;;;8.38;2.65;;;;;;;7.15;100.00;92671.75;5132925;27;20051;-81
2021/04/28 03:44:57;;;;;;;7.57;3.53;;;;;;;6.94;100.00;92643.72;5132916;27;20044;-80
2021/04/28 03:47:23;;;;;;;;;;;;;;;7.21;100.00;92679.41;5133692;27;20059;-80
2021/04/28 03:49:50;;;;;;;10.85;4.80;;;;;;;7.14;100.00;92671.00;5133092;27;20314;-80
2021/04/28 03:52:16;;;;;;;;;;;;;;;7.13;100.00;92683.97;5133886;27;20422;-80
2021/04/28 03:54:42;;;;;;;11.00;5.30;;;;;;;7.10;100.00;92685.16;5132782;27;19923;-80
2021/04/28 03:57:10;;;;;;;16.13;7.30;;;;;;;7.14;100.00;92686.31;5133017;27;20047;-81
2021/04/28 03:59:38;;;;;;;10.65;5.80;;;;;;;7.18;100.00;92679.81;5133256;27;20051;-80
2021/04/28 04:02:05;;;;;;;10.70;5.32;;;;;;;7.08;100.00;92659.81;5133125;27;20058;-82
2021/04/28 04:04:31;;;;;;;11.40;5.28;;;;;;;7.26;100.00;92681.34;5132642;27;20490;-83
2021/04/28 04:06:57;;;;;;;9.10;5.05;;;;;;;7.03;100.00;92643.53;5132514;27;20058;-84
2021/04/28 04:09:23;;;;;;;;;;;;;;;7.21;100.00;92655.63;5132963;27;20051;-84
2021/04/28 04:11:51;;;;;;;8.95;3.90;;;;;;;7.48;100.00;92697.19;5132578;27;19960;-84
2021/04/28 04:14:18;;;;;;;7.20;4.00;;;;;;;7.52;100.00;92694.22;5132343;27;20092;-80
2021/04/28 04:16:45;;;;;;;;;;;;;;;7.62;100.00;92705.59;5133301;27;20051;-81
2021/04/28 04:19:11;;;;;;;5.70;2.80;;;;;;;7.61;100.00;92686.16;5132569;27;19919;-80
2021/04/28 04:21:38;;;;;;;7.22;2.97;;;;;;;7.85;100.00;92699.19;5132585;27;20418;-81
2021/04/28 04:24:06;;;;;;;13.48;6.65;;;;;;;7.98;100.00;92702.66;5132286;27;20133;-80
2021/04/28 04:26:32;;;;;;;9.05;4.28;;;;;;;8.14;100.00;92701.38;5132337;27;20070;-81
2021/04/28 04:28:58;;;;;;;;;;;;;;;8.31;100.00;92709.34;5132970;27;20055;-81
2021/04/28 04:31:24;;;;;;;7.38;4.70;;;;;;;8.37;100.00;92705.16;5132386;27;19935;-81
2021/04/28 04:33:51;;;;;;;;;;;;;;;8.27;100.00;92710.72;5132400;27;20058;-81
2021/04/28 04:36:17;;;;;;;8.73;4.28;;;;;;;8.41;100.00;92712.22;5132557;27;19923;-81
2021/04/28 04:38:43;;;;;;;;;;;;;;;8.54;100.00;92725.94;5132872;27;20092;-80
2021/04/28 04:41:09;;;;;;;5.35;3.03;;;;;;;8.53;100.00;92717.47;5127527;27;19981;-80
2021/04/28 04:43:36;;;;;;;;;;;;;;;8.59;100.00;92727.84;5130305;27;20056;-81
2021/04/28 04:46:02;;;;;;;8.68;3.40;;;;;;;8.64;100.00;92743.38;5131815;27;19919;-81
2021/04/28 04:48:28;;;;;;;12.32;4.60;;;;;;;8.66;100.00;92734.50;5131396;27;20053;-82
2021/04/28 04:50:55;;;;;;;;;;;;;;;8.84;100.00;92742.44;5132334;27;20046;-77
2021/04/28 04:53:21;;;;;;;8.50;4.15;;;;;;;9.01;100.00;92719.63;5131537;27;19919;-77
2021/04/28 04:55:48;;;;;;;;;;;;;;;9.16;100.00;92720.06;5131818;27;20493;-77
2021/04/28 04:58:14;;;;;;;13.68;5.47;;;;;;;9.30;100.00;92709.69;5131785;27;20013;-77
2021/04/28 05:00:40;;;;;;;;;;;;;;;9.55;100.00;92707.06;5132051;27;20039;-79
2021/04/28 05:03:06;;;;;;;14.43;6.65;;;;;;;9.78;100.00;92709.94;5131357;27;19930;-80
2021/04/28 05:05:32;;;;;;;;;;;;;;;9.99;100.00;92713.78;5132001;27;20039;-84
2021/04/28 05:07:59;;;;;;;13.85;7.28;;;;;;;10.16;100.00;92711.41;5131478;27;19927;-83
2021/04/28 05:10:26;;;;;;;16.20;7.55;;;;;;;10.15;100.00;92681.63;5131441;27;20058;-83
2021/04/28 05:12:52;;;;;;;12.00;5.10;;;;;;;10.57;100.00;92729.59;5131443;27;20043;-82
2021/04/28 05:15:18;;;;;;;;;;;;;;;10.77;100.00;92733.63;5131913;27;20059;-83
2021/04/28 05:17:45;;;;;;;11.85;5.32;;;;;;;10.93;100.00;92738.13;5130846;27;19923;-83
2021/04/28 05:20:13;;;;;;;7.75;5.25;;;;;;;11.02;100.00;92730.09;5131540;27;20137;-83
2021/04/28 05:22:39;;;;;;;9.15;4.97;;;;;;;11.45;100.00;92752.06;5130960;27;20074;-83
2021/04/28 05:25:08;;;;;;;11.88;6.53;;;;;;;11.64;100.00;92736.50;5130934;27;20047;-81
2021/04/28 05:27:34;;;;;;;12.00;5.90;;;;;;;11.90;100.00;92731.84;5131296;27;20050;-81
2021/04/28 05:30:01;;;;;;;8.40;5.32;;;;;;;12.20;98.08;92735.19;5131205;27;20047;-86
2021/04/28 05:32:27;;;;;;;15.32;6.05;;;;;;;12.27;95.97;92692.84;5130951;27;20057;-87
2021/04/28 05:34:53;;;;;;;11.90;5.65;;;;;;;12.61;96.36;92696.44;5130963;27;20062;-86
2021/04/28 05:37:19;;;;;;;;;;;;;;;12.89;95.79;92699.94;5131489;27;20107;-86
2021/04/28 05:39:47;;;;;;;8.02;4.25;;;;;;;12.89;94.94;92681.91;5130753;27;20041;-87
2021/04/28 05:42:14;;;;;;;9.65;4.50;;;;;;;12.92;94.53;92635.81;5130776;27;20501;-85
2021/04/28 05:44:41;;;;;;;7.95;3.65;;;;;;;13.32;92.82;92683.00;5130833;27;20047;-85
2021/04/28 05:47:07;;;;;;;5.32;3.53;;;;;;;13.58;91.75;92685.91;5130717;27;20429;-85
2021/04/28 05:49:34;;;;;;;5.35;3.67;;;;;;;13.74;90.75;92673.94;5126396;27;20050;-85
2021/04/28 05:52:00;;;;;;;5.53;2.92;;;;;;;13.93;89.12;92678.78;5128742;27;20087;-85
2021/04/28 05:54:28;;;;;;;4.63;2.78;;;;;;;14.11;87.23;92671.69;5130525;27;20418;-85
2021/04/28 05:56:56;;;;;;;5.05;3.35;;;;;;;14.52;85.02;92686.78;5130310;27;20092;-85
2021/04/28 05:59:23;;;;;;;12.38;3.63;;;;;;;14.46;83.58;92652.38;5130440;27;20127;-86
2021/04/28 06:01:50;;;;;;;13.60;3.08;;;;;;;14.81;84.39;92665.81;5130231;27;20051;-83
2021/04/28 06:04:16;;;;;;;;;;;;;;;15.17;81.62;92671.19;5131105;27;20043;-83
2021/04/28 06:06:42;;;;;;;6.55;3.60;;;;;;;15.37;82.33;92680.09;5130189;27;19933;-83
2021/04/28 06:09:09;;;;;;;7.57;3.63;;;;;;;15.54;79.04;92690.25;5130411;27;20447;-83
2021/04/28 06:11:35;;;;;;;;;;;;;;;15.74;79.22;92688.78;5130748;27;20057;-83
2021/04/28 06:14:02;;;;;;;5.30;3.28;;;;;;;15.51;79.99;92685.59;5130084;27;19923;-83
2021/04/28 06:16:29;;;;;;;6.55;4.32;;;;;;;15.36;80.50;92673.34;5129939;27;20054;-83
2021/04/28 06:18:56;;;;;;;7.95;3.17;;;;;;;15.65;81.34;92685.09;5130214;27;20039;-83
2021/04/28 06:21:22;;;;;;;;;;;;;;;15.58;77.64;92695.69;5130650;27;20047;-83
2021/04/28 06:23:48;;;;;;;6.38;3.50;;;;;;;15.05;82.55;92697.25;5130317;27;20020;-82
2021/04/28 06:26:16;;;;;;;9.35;3.78;;;;;;;14.62;82.32;92680.91;5130333;27;20061;-83
2021/04/28 06:28:43;;;;;;;8.32;3.65;;;;;;;14.61;83.62;92700.00;5130124;27;20043;-83
2021/04/28 06:31:09;;;;;;;5.15;3.00;;;;;;;15.27;81.03;92695.56;5133246;27;20138;-84
2021/04/28 06:33:37;;;;;;;4.65;2.25;;;;;;;15.54;76.71;92700.59;5134669;27;20199;-84
2021/04/28 06:36:04;;;;;;;5.10;2.70;;;;;;;15.71;77.35;92704.81;5134658;27;20103;-86
2021/04/28 06:38:30;;;;;;;5.53;2.83;;;;;;;15.64;75.42;92712.78;5134242;27;20112;-87
2021/04/28 06:40:56;;;;;;;8.65;3.30;;;;;;;15.52;77.65;92678.59;5134172;27;20520;-86
2021/04/28 06:43:23;;;;;;;4.68;2.50;;;;;;;15.58;78.54;92674.97;5134405;27;20047;-86
2021/04/28 06:45:49;;;;;;;7.70;3.10;;;;;;;15.79;76.41;92706.13;5133825;27;20220;-86
2021/04/28 06:48:15;;;;;;;9.45;3.70;;;;;;;15.83;78.19;92699.41;5134364;27;20043;-86
2021/04/28 06:50:42;;;;;;;;;;;;;;;16.28;76.58;92717.91;5134887;27;20054;-86
2021/04/28 06:53:09;;;;;;;5.78;2.92;;;;;;;16.30;75.27;92688.13;5134140;27;19931;-86
2021/04/28 06:55:35;;;;;;;7.20;3.78;;;;;;;16.49;74.01;92723.13;5134250;27;20047;-86
2021/04/28 06:58:01;;;;;;;;;;;;;;;16.25;75.75;92728.81;5134300;27;20494;-88
2021/04/28 07:00:29;;;;;;;4.80;2.88;;;;;;;15.67;77.41;92670.88;5133847;27;19926;-90
2021/04/28 07:02:57;;;;;;;6.07;3.30;;;;;;;15.79;75.42;92669.88;5134335;27;20139;-87
2021/04/28 07:05:25;;;;;;;8.50;3.92;;;;;;;16.47;79.07;92723.38;5128581;27;20051;-88
2021/04/28 07:07:56;;;;;;;12.38;3.72;;;;;;;16.99;76.16;92725.97;5132192;27;20051;-88
2021/04/28 07:10:23;;;;;;;10.93;3.15;;;;;;;17.09;76.67;92671.50;5112913;28;20051;-88
2021/04/28 07:12:50;;;;;;;10.32;3.70;;;;;;;17.85;75.25;92720.06;5112848;28;20043;-88
2021/04/28 07:15:16;;;;;;;7.15;3.13;;;;;;;18.06;73.49;92724.41;5113200;28;20047;-89
2021/04/28 07:17:45;;;;;;;8.32;4.35;;;;;;;18.38;73.46;92705.75;5112921;28;20047;-88
2021/04/28 07:20:12;;;;;;;6.53;3.88;;;;;;;18.66;70.51;92721.69;5112908;28;20483;-88
2021/04/28 07:22:38;;;;;;;7.80;4.07;;;;;;;19.14;71.08;92719.50;5112972;28;20059;-88
2021/04/28 07:25:07;;;;;;;5.70;2.88;;;;;;;19.39;69.04;92710.66;5113733;28;20047;-88
2021/04/28 07:27:33;;;;;;;7.53;3.78;;;;;;;19.76;68.04;92722.25;5113462;28;20547;-88
2021/04/28 07:30:00;;;;;;;8.23;3.38;;;;;;;19.54;66.88;92655.03;5112875;28;20040;-87
2021/04/28 07:32:27;;;;;;;5.82;3.40;;;;;;;19.88;64.89;92663.72;5112453;28;20417;-88
2021/04/28 07:34:53;;;;;;;6.32;2.80;;;;;;;20.27;64.26;92661.94;5112530;28;20588;-89
2021/04/28 07:37:20;;;;;;;5.85;2.65;;;;;;;19.83;61.51;92624.72;5112387;28;20510;-88
2021/04/28 07:39:46;;;;;;;5.93;2.67;;;;;;;19.88;60.20;92619.44;5119900;27;20066;-88
2021/04/28 07:42:13;;;;;;;4.88;2.90;;;;;;;20.55;60.06;92712.38;5126895;27;20073;-87
2021/04/28 07:44:40;;;;;;;4.90;2.75;;;;;;;19.97;61.04;92656.88;5132986;27;20067;-88
2021/04/28 07:47:08;;;;;;;8.23;4.30;;;;;;;19.96;59.53;92691.81;5133023;27;20553;-87
2021/04/28 07:50:02;;;;;;;6.40;3.30;;;;;;;20.13;59.38;92690.53;5134024;27;20047;-93
2021/04/28 08:05:40;;;;;;;6.38;3.58;;;;;;;20.37;59.89;92700.88;5099023;28;20058;-84
2021/04/28 08:08:07;;;;;;;4.90;2.78;;;;;;;20.86;58.51;92705.13;5112826;27;20100;-84
2021/04/28 08:10:34;;;;;;;4.03;2.15;;;;;;;21.00;51.81;92697.34;5132090;27;20047;-84
2021/04/28 08:13:01;;;;;;;4.57;2.25;;;;;;;21.39;54.12;92701.38;5133619;27;20047;-84
2021/04/28 08:15:27;;;;;;;5.70;2.30;;;;;;;21.36;47.58;92684.44;5132774;27;20054;-84
2021/04/28 08:17:54;;;;;;;3.55;1.67;;;;;;;21.53;49.66;92698.00;5133238;27;20043;-85
2021/04/28 08:20:20;;;;;;;8.20;1.80;;;;;;;21.73;46.44;92683.78;5133317;27;20142;-84
2021/04/28 08:22:47;;;;;;;3.45;1.98;;;;;;;22.00;51.13;92684.81;5133179;27;20365;-84
2021/04/28 08:25:15;;;;;;;5.45;2.58;;;;;;;22.23;50.95;92680.41;5133047;27;20099;-84
2021/04/28 08:27:41;;;;;;;3.15;1.90;;;;;;;22.34;50.96;92685.38;5129151;27;20050;-84
2021/04/28 08:30:10;;;;;;;6.10;2.50;;;;;;;22.37;49.50;92650.78;5130587;27;20051;-84
2021/04/28 08:32:37;;;;;;;9.63;2.80;;;;;;;22.57;49.24;92649.56;5132029;27;20058;-84
2021/04/28 08:35:04;;;;;;;8.90;2.38;;;;;;;22.94;49.16;92673.81;5132281;27;20055;-83
2021/04/28 08:37:31;;;;;;;5.57;2.17;;;;;;;23.09;44.41;92685.72;5132213;27;20436;-84
2021/04/28 08:39:58;;;;;;;5.43;2.22;;;;;;;22.96;44.68;92681.38;5132675;27;20055;-83
2021/04/28 08:42:24;;;;;;;3.42;1.58;;;;;;;22.39;43.97;92665.13;5132357;27;20410;-84
2021/04/28 08:44:52;;;;;;;5.90;2.25;;;;;;;22.51;45.45;92654.13;5132088;27;20073;-83
2021/04/28 08:47:20;;;;;;;3.33;1.90;;;;;;;22.41;45.25;92680.53;5131648;27;20054;-84
2021/04/28 08:49:46;;;;;;;3.60;1.98;;;;;;;22.44;47.25;92672.06;5131465;27;20452;-84
2021/04/28 08:52:14;;;;;;;4.70;2.17;;;;;;;22.45;48.64;92651.91;5130859;27;20044;-84
2021/04/28 08:54:41;;;;;;;3.92;2.33;;;;;;;22.53;47.42;92640.75;5131944;27;20071;-84
2021/04/28 08:57:10;;;;;;;8.60;2.47;;;;;;;22.82;48.21;92657.88;5131947;27;20177;-83
2021/04/28 08:59:37;;;;;;;4.93;2.22;;;;;;;22.89;45.05;92660.03;5131873;27;20126;-83
2021/04/28 09:02:15;;;;;;;3.65;2.28;;;;;;;23.37;44.34;92657.81;5131546;27;20047;-83
2021/04/28 09:04:42;;;;;;;5.00;1.92;;;;;;;23.68;46.71;92655.13;5131700;27;20043;-84
2021/04/28 09:07:08;;;;;;;3.65;2.00;;;;;;;23.97;44.48;92647.78;5131282;27;20062;-85
2021/04/28 09:09:34;;;;;;;3.30;1.88;;;;;;;24.24;45.39;92651.19;5130975;27;20054;-84
2021/04/28 09:12:02;;;;;;;5.78;2.17;;;;;;;24.50;43.95;92647.78;5131413;27;20130;-84
2021/04/28 09:14:32;;;;;;;4.65;1.90;;;;;;;24.15;42.46;92602.13;5147765;27;20031;-83
2021/04/28 09:17:00;;;;;;;2.80;1.38;;;;;;;24.25;41.00;92648.25;5157398;27;20062;-83
2021/04/28 09:19:30;;;;;;;9.23;1.92;;;;;;;24.27;42.39;92651.38;5152680;27;20043;-83
2021/04/28 09:22:00;;;;;;;3.80;1.55;;;;;;;24.10;43.89;92646.09;5131289;27;20043;-82
2021/04/28 09:24:29;;;;;;;3.38;1.60;;;;;;;24.22;42.67;92635.00;5131733;27;20492;-84
2021/04/28 09:26:57;;;;;;;5.03;1.40;;;;;;;24.30;43.54;92600.09;5131983;27;20094;-84
2021/04/28 09:29:26;;;;;;;4.78;2.15;;;;;;;24.63;41.88;92622.44;5131628;27;20043;-84
2021/04/28 09:32:02;;;;;;;5.18;1.92;;;;;;;24.77;41.23;92623.00;5131790;27;20058;-84
2021/04/28 09:34:38;;;;;;;3.67;1.48;;;;;;;24.82;41.29;92624.75;5130873;27;20059;-84
2021/04/28 09:37:10;;;;;;;2.10;1.38;;;;;;;24.53;35.60;92623.56;5131182;27;20153;-84
2021/04/28 09:39:45;;;;;;;3.22;1.70;;;;;;;24.82;38.07;92630.75;5131452;27;20236;-83
2021/04/28 09:42:13;;;;;;;;;;;;;;;25.08;37.91;92629.91;5132026;27;20047;-83
2021/04/28 09:44:45;;;;;;;3.40;1.38;;;;;;;25.22;36.32;92629.69;5131107;27;19924;-83
2021/04/28 09:47:15;;;;;;;6.75;1.65;;;;;;;25.46;35.14;92617.06;5131001;27;20051;-83
2021/04/28 09:49:55;;;;;;;7.68;2.00;;;;;;;25.45;34.85;92605.00;5130926;27;20047;-83
2021/04/28 09:52:25;;;;;;;2.40;1.00;;;;;;;25.57;36.94;92580.69;5131139;27;20094;-84
2021/04/28 09:54:52;;;;;;;2.03;1.33;;;;;;;25.73;36.84;92600.06;5131191;27;20058;-83
2021/04/28 09:57:33;;;;;;;6.03;1.92;;;;;;;25.68;37.84;92599.50;5131133;27;20051;-83
2021/04/28 09:59:59;;;;;;;4.53;1.77;;;;;;;25.57;34.26;92602.50;5131076;27;20161;-83
2021/04/28 10:02:28;;;;;;;3.47;2.08;;;;;;;25.74;35.65;92604.22;5130684;27;20043;-83
2021/04/28 10:05:15;;;;;;;2.75;1.42;;;;;;;25.74;36.74;92598.97;5130763;27;20043;-84
2021/04/28 10:07:42;;;;;;;1.83;1.23;;;;;;;25.72;34.30;92601.16;5130943;27;20047;-83
2021/04/28 10:10:09;;;;;;;2.90;1.50;;;;;;;25.72;35.31;92569.59;5127525;27;20724;-83
2021/04/28 10:12:35;;;;;;;4.65;1.88;;;;;;;26.07;35.02;92596.72;5128722;27;20047;-83
2021/04/28 10:15:01;;;;;;;2.25;1.17;;;;;;;25.86;32.11;92593.00;5129221;27;20126;-83
2021/04/28 10:17:31;;;;;;;2.22;1.13;;;;;;;24.69;33.09;92584.44;5130287;27;20068;-82
2021/04/28 10:19:58;;;;;;;4.13;1.30;;;;;;;24.89;35.81;92566.44;5130509;27;20051;-82
2021/04/28 10:22:25;;;;;;;3.85;1.25;;;;;;;25.34;35.63;92589.59;5130554;27;20066;-83
2021/04/28 10:24:54;;;;;;;4.40;1.13;;;;;;;25.57;34.93;92578.81;5130865;27;20443;-83
2021/04/28 10:27:21;;;;;;;3.47;1.10;;;;;;;25.96;34.84;92580.56;5130277;27;20517;-83
2021/04/28 10:29:49;;;;;;;3.88;1.52;;;;;;;26.18;33.34;92576.03;5130135;27;20051;-83
2021/04/28 10:32:17;;;;;;;3.17;1.25;;;;;;;26.07;32.79;92575.66;5130751;28;20194;-83
2021/04/28 10:34:49;;;;;;;3.05;1.40;;;;;;;26.15;32.48;92543.25;5130176;28;20403;-82
2021/04/28 10:37:17;;;;;;;6.35;1.25;;;;;;;26.51;33.96;92567.38;5130598;28;20067;-82
2021/04/28 10:39:47;;;;;;;1.90;0.77;;;;;;;26.61;33.18;92566.97;5130600;28;20452;-83
2021/04/28 10:42:25;;;;;;;3.58;1.17;;;;;;;26.41;33.29;92572.00;5129983;28;20425;-83
2021/04/28 10:44:52;;;;;;;2.38;1.35;;;;;;;26.21;30.95;92572.75;5130166;27;20043;-82
2021/04/28 10:47:28;;;;;;;6.78;0.98;;;;;;;25.94;32.87;92559.06;5130101;28;20054;-82
2021/04/28 10:50:21;;;;;;;5.13;1.05;;;;;;;26.24;32.40;92562.38;5130018;28;20043;-82
2021/04/28 10:52:51;;;;;;;3.38;0.88;;;;;;;26.34;32.48;92558.56;5130123;28;20047;-82
2021/04/28 10:55:37;;;;;;;2.30;1.20;;;;;;;26.08;32.93;92553.53;5130227;28;20043;-82
2021/04/28 10:58:04;;;;;;;5.63;1.13;;;;;;;25.74;32.65;92556.13;5130026;28;20051;-82
2021/04/28 11:00:30;;;;;;;3.13;1.08;;;;;;;25.71;32.16;92557.53;5130028;28;20509;-82
2021/04/28 11:02:57;;;;;;;1.95;1.25;;;;;;;25.61;34.52;92548.16;5130268;27;20499;-82
2021/04/28 11:05:26;;;;;;;5.13;1.60;;;;;;;25.95;32.29;92542.94;5130068;27;20043;-82
2021/04/28 11:07:54;;;;;;;2.20;1.30;;;;;;;26.02;32.84;92542.44;5130009;27;20070;-83
2021/04/28 11:10:29;;;;;;;3.80;1.17;;;;;;;26.25;30.21;92523.69;5130204;27;20051;-82
2021/04/28 11:13:12;;;;;;;2.92;1.33;;;;;;;26.10;32.14;92496.84;5129878;27;20099;-82
2021/04/28 11:15:45;;;;;;;5.10;1.08;;;;;;;26.02;31.59;92514.25;5130348;27;20163;-82
2021/04/28 11:18:32;;;;;;;2.85;0.82;;;;;;;26.05;32.03;92518.09;5134640;27;20047;-81
2021/04/28 11:21:28;;;;;;;2.83;1.48;;;;;;;25.94;31.89;92516.97;5134020;27;20039;-82
2021/04/28 11:24:09;;;;;;;3.95;1.40;;;;;;;25.94;32.50;92515.09;5133679;27;20514;-82
2021/04/28 11:26:37;;;;;;;2.28;0.90;;;;;;;25.91;32.79;92509.72;5133784;27;20059;-83
2021/04/28 11:29:05;;;;;;;4.05;1.17;;;;;;;25.87;32.10;92513.00;5133485;27;20062;-83
2021/04/28 11:31:43;;;;;;;8.07;1.63;;;;;;;26.07;32.55;92515.94;5133238;27;20047;-82
2021/04/28 11:34:34;;;;;;;7.57;1.75;;;;;;;26.18;32.36;92507.59;5133548;27;20043;-81
2021/04/28 11:37:03;;;;;;;3.90;1.33;;;;;;;26.62;32.35;92502.66;5122652;27;20502;-82
2021/04/28 11:39:36;;;;;;;4.80;2.03;;;;;;;26.68;31.41;92508.50;5133434;27;20047;-82
2021/04/28 11:42:08;;;;;;;5.80;1.17;;;;;;;26.99;30.86;92503.81;5134100;27;20073;-82
2021/04/28 11:44:35;;;;;;;4.40;2.03;;;;;;;27.04;30.39;92485.13;5133780;27;20043;-82
2021/04/28 11:47:10;;;;;;;4.68;2.00;;;;;;;26.78;31.77;92499.38;5133574;27;20043;-82
2021/04/28 11:49:40;;;;;;;3.90;1.30;;;;;;;26.64;31.67;92492.59;5133762;27;20127;-83
2021/04/28 11:52:07;;;;;;;3.65;1.00;;;;;;;26.53;31.89;92486.97;5133465;27;20157;-82
2021/04/28 11:54:34;;;;;;;2.83;1.13;;;;;;;26.38;31.50;92485.75;5133304;27;20066;-83